sensor_id;sensor_type;location;lat;lon;timestamp;temperature;humidity
3406;DHT22;10008;48.682;9.016;2024-03-08T00:00:43;3.00;99.90
3406;DHT22;10008;48.682;9.016;2024-03-08T00:03:09;3.00;99.90
3406;DHT22;10008;48.682;9.016;2024-03-08T00:05:36;3.00;99.90
3406;DHT22;10008;48.682;9.016;2024-03-08T00:08:05;3.00;99.90
3406;DHT22;10008;48.682;9.016;2024-03-08T00:10:31;3.00;99.90
3406;DHT22;10008;48.682;9.016;2024-03-08T00:12:57;2.90;99.90
3406;DHT22;10008;48.682;9.016;2024-03-08T00:15:23;2.90;99.90
3406;DHT22;10008;48.682;9.016;2024-03-08T00:17:49;2.90;99.90
3406;DHT22;10008;48.682;9.016;2024-03-08T00:20:15;2.90;99.90
3406;DHT22;10008;48.682;9.016;2024-03-08T00:22:43;2.80;99.90
3406;DHT22;10008;48.682;9.016;2024-03-08T00:25:09;2.80;99.90
3406;DHT22;10008;48.682;9.016;2024-03-08T00:27:35;2.80;99.90
3406;DHT22;10008;48.682;9.016;2024-03-08T00:30:01;2.80;99.90
3406;DHT22;10008;48.682;9.016;2024-03-08T00:32:27;2.70;99.90
3406;DHT22;10008;48.682;9.016;2024-03-08T00:34:56;2.70;99.90
3406;DHT22;10008;48.682;9.016;2024-03-08T00:37:21;2.70;99.90
3406;DHT22;10008;48.682;9.016;2024-03-08T00:39:48;2.80;99.90
3406;DHT22;10008;48.682;9.016;2024-03-08T00:42:16;2.70;99.90
3406;DHT22;10008;48.682;9.016;2024-03-08T00:44:41;2.70;99.90
3406;DHT22;10008;48.682;9.016;2024-03-08T00:47:07;2.60;99.90
3406;DHT22;10008;48.682;9.016;2024-03-08T00:49:33;2.80;99.90
3406;DHT22;10008;48.682;9.016;2024-03-08T00:51:59;2.50;99.90
3406;DHT22;10008;48.682;9.016;2024-03-08T00:54:25;2.50;99.90
3406;DHT22;10008;48.682;9.016;2024-03-08T00:56:51;2.60;99.90
3406;DHT22;10008;48.682;9.016;2024-03-08T00:59:17;2.50;99.90
3406;DHT22;10008;48.682;9.016;2024-03-08T01:01:43;2.50;99.90
3406;DHT22;10008;48.682;9.016;2024-03-08T01:04:10;2.60;99.90
3406;DHT22;10008;48.682;9.016;2024-03-08T01:06:35;2.50;99.90
3406;DHT22;10008;48.682;9.016;2024-03-08T01:09:01;2.50;99.90
3406;DHT22;10008;48.682;9.016;2024-03-08T01:11:27;2.50;99.90
3406;DHT22;10008;48.682;9.016;2024-03-08T01:13:53;2.50;99.90
3406;DHT22;10008;48.682;9.016;2024-03-08T01:16:19;2.40;99.90
3406;DHT22;10008;48.682;9.016;2024-03-08T01:18:48;2.40;99.90
3406;DHT22;10008;48.682;9.016;2024-03-08T01:21:13;2.30;99.90
3406;DHT22;10008;48.682;9.016;2024-03-08T01:23:39;2.60;99.90
3406;DHT22;10008;48.682;9.016;2024-03-08T01:26:05;2.30;99.90
3406;DHT22;10008;48.682;9.016;2024-03-08T01:28:31;2.30;99.90
3406;DHT22;10008;48.682;9.016;2024-03-08T01:30:59;2.20;99.90
3406;DHT22;10008;48.682;9.016;2024-03-08T01:33:26;2.20;99.90
3406;DHT22;10008;48.682;9.016;2024-03-08T01:35:52;2.20;99.90
3406;DHT22;10008;48.682;9.016;2024-03-08T01:38:19;2.20;99.90
3406;DHT22;10008;48.682;9.016;2024-03-08T01:40:48;2.20;99.90
3406;DHT22;10008;48.682;9.016;2024-03-08T01:43:27;2.20;99.90
3406;DHT22;10008;48.682;9.016;2024-03-08T01:45:55;2.10;99.90
3406;DHT22;10008;48.682;9.016;2024-03-08T01:48:21;2.20;99.90
3406;DHT22;10008;48.682;9.016;2024-03-08T01:50:50;2.10;99.90
3406;DHT22;10008;48.682;9.016;2024-03-08T01:53:17;2.10;99.90
3406;DHT22;10008;48.682;9.016;2024-03-08T01:55:45;2.40;99.90
3406;DHT22;10008;48.682;9.016;2024-03-08T01:58:12;2.10;99.90
3406;DHT22;10008;48.682;9.016;2024-03-08T02:00:43;2.00;99.90
3406;DHT22;10008;48.682;9.016;2024-03-08T02:03:09;2.00;99.90
3406;DHT22;10008;48.682;9.016;2024-03-08T02:05:40;1.90;99.90
3406;DHT22;10008;48.682;9.016;2024-03-08T02:08:06;2.00;99.90
3406;DHT22;10008;48.682;9.016;2024-03-08T02:10:33;2.00;99.90
3406;DHT22;10008;48.682;9.016;2024-03-08T02:13:01;1.90;99.90
3406;DHT22;10008;48.682;9.016;2024-03-08T02:15:54;1.90;99.90
3406;DHT22;10008;48.682;9.016;2024-03-08T02:18:21;1.80;99.90
3406;DHT22;10008;48.682;9.016;2024-03-08T02:20:55;1.90;99.90
3406;DHT22;10008;48.682;9.016;2024-03-08T02:23:21;1.80;99.90
3406;DHT22;10008;48.682;9.016;2024-03-08T02:25:47;1.80;99.90
3406;DHT22;10008;48.682;9.016;2024-03-08T02:28:14;1.80;99.90
3406;DHT22;10008;48.682;9.016;2024-03-08T02:30:40;1.80;99.90
3406;DHT22;10008;48.682;9.016;2024-03-08T02:33:07;1.80;99.90
3406;DHT22;10008;48.682;9.016;2024-03-08T02:35:35;1.80;99.90
3406;DHT22;10008;48.682;9.016;2024-03-08T02:38:02;1.80;99.90
3406;DHT22;10008;48.682;9.016;2024-03-08T02:40:29;1.80;99.90
3406;DHT22;10008;48.682;9.016;2024-03-08T02:42:55;1.80;99.90
3406;DHT22;10008;48.682;9.016;2024-03-08T02:45:21;1.70;99.90
3406;DHT22;10008;48.682;9.016;2024-03-08T02:47:46;1.70;99.90
3406;DHT22;10008;48.682;9.016;2024-03-08T02:50:15;1.80;99.90
3406;DHT22;10008;48.682;9.016;2024-03-08T02:52:42;1.60;99.90
3406;DHT22;10008;48.682;9.016;2024-03-08T02:55:08;1.60;99.90
3406;DHT22;10008;48.682;9.016;2024-03-08T02:57:36;1.60;99.90
3406;DHT22;10008;48.682;9.016;2024-03-08T03:00:02;1.50;99.90
3406;DHT22;10008;48.682;9.016;2024-03-08T03:02:29;1.50;99.90
3406;DHT22;10008;48.682;9.016;2024-03-08T03:04:55;1.50;99.90
3406;DHT22;10008;48.682;9.016;2024-03-08T03:07:21;1.60;99.90
3406;DHT22;10008;48.682;9.016;2024-03-08T03:09:47;1.60;99.90
3406;DHT22;10008;48.682;9.016;2024-03-08T03:12:13;1.50;99.90
3406;DHT22;10008;48.682;9.016;2024-03-08T03:14:39;1.50;99.90
3406;DHT22;10008;48.682;9.016;2024-03-08T03:17:05;1.50;99.90
3406;DHT22;10008;48.682;9.016;2024-03-08T03:19:31;1.40;99.90
3406;DHT22;10008;48.682;9.016;2024-03-08T03:21:57;1.40;99.90
3406;DHT22;10008;48.682;9.016;2024-03-08T03:24:22;1.50;99.90
3406;DHT22;10008;48.682;9.016;2024-03-08T03:26:49;1.40;99.90
3406;DHT22;10008;48.682;9.016;2024-03-08T03:29:15;1.40;99.90
3406;DHT22;10008;48.682;9.016;2024-03-08T03:31:42;1.40;99.90
3406;DHT22;10008;48.682;9.016;2024-03-08T03:34:12;1.30;99.90
3406;DHT22;10008;48.682;9.016;2024-03-08T03:36:38;1.30;99.90
3406;DHT22;10008;48.682;9.016;2024-03-08T03:39:08;1.30;99.90
3406;DHT22;10008;48.682;9.016;2024-03-08T03:41:45;1.30;99.90
3406;DHT22;10008;48.682;9.016;2024-03-08T03:44:12;1.30;99.90
3406;DHT22;10008;48.682;9.016;2024-03-08T03:46:37;1.70;99.90
3406;DHT22;10008;48.682;9.016;2024-03-08T03:49:09;1.20;99.90
3406;DHT22;10008;48.682;9.016;2024-03-08T03:51:35;1.20;99.90
3406;DHT22;10008;48.682;9.016;2024-03-08T03:54:00;1.20;99.90
3406;DHT22;10008;48.682;9.016;2024-03-08T03:56:29;1.10;99.90
3406;DHT22;10008;48.682;9.016;2024-03-08T03:58:56;1.10;99.90
3406;DHT22;10008;48.682;9.016;2024-03-08T04:01:22;1.10;99.90
3406;DHT22;10008;48.682;9.016;2024-03-08T04:03:48;1.40;99.90
3406;DHT22;10008;48.682;9.016;2024-03-08T04:06:13;1.10;99.90
3406;DHT22;10008;48.682;9.016;2024-03-08T04:08:40;1.20;99.90
3406;DHT22;10008;48.682;9.016;2024-03-08T04:11:07;1.40;99.90
3406;DHT22;10008;48.682;9.016;2024-03-08T04:13:34;1.00;99.90
3406;DHT22;10008;48.682;9.016;2024-03-08T04:16:00;1.00;99.90
3406;DHT22;10008;48.682;9.016;2024-03-08T04:18:25;1.00;99.90
3406;DHT22;10008;48.682;9.016;2024-03-08T04:20:51;1.00;99.90
3406;DHT22;10008;48.682;9.016;2024-03-08T04:23:17;0.90;99.90
3406;DHT22;10008;48.682;9.016;2024-03-08T04:25:43;0.90;99.90
3406;DHT22;10008;48.682;9.016;2024-03-08T04:28:09;0.90;99.90
3406;DHT22;10008;48.682;9.016;2024-03-08T04:30:39;1.00;99.90
3406;DHT22;10008;48.682;9.016;2024-03-08T04:33:07;0.90;99.90
3406;DHT22;10008;48.682;9.016;2024-03-08T04:35:34;0.90;99.90
3406;DHT22;10008;48.682;9.016;2024-03-08T04:37:59;0.90;99.90
3406;DHT22;10008;48.682;9.016;2024-03-08T04:40:25;0.90;99.90
3406;DHT22;10008;48.682;9.016;2024-03-08T04:42:51;0.90;99.90
3406;DHT22;10008;48.682;9.016;2024-03-08T04:45:17;0.90;99.90
3406;DHT22;10008;48.682;9.016;2024-03-08T04:47:44;0.80;99.90
3406;DHT22;10008;48.682;9.016;2024-03-08T04:50:10;0.80;99.90
3406;DHT22;10008;48.682;9.016;2024-03-08T04:52:36;0.80;99.90
3406;DHT22;10008;48.682;9.016;2024-03-08T04:55:02;0.80;99.90
3406;DHT22;10008;48.682;9.016;2024-03-08T04:57:31;0.80;99.90
3406;DHT22;10008;48.682;9.016;2024-03-08T04:59:57;0.80;99.90
3406;DHT22;10008;48.682;9.016;2024-03-08T05:02:24;0.80;99.90
3406;DHT22;10008;48.682;9.016;2024-03-08T05:04:50;0.70;99.90
3406;DHT22;10008;48.682;9.016;2024-03-08T05:07:16;0.80;99.90
3406;DHT22;10008;48.682;9.016;2024-03-08T05:09:42;0.80;99.90
3406;DHT22;10008;48.682;9.016;2024-03-08T05:12:08;0.70;99.90
3406;DHT22;10008;48.682;9.016;2024-03-08T05:14:34;0.70;99.90
3406;DHT22;10008;48.682;9.016;2024-03-08T05:17:00;0.90;99.90
3406;DHT22;10008;48.682;9.016;2024-03-08T05:19:26;0.70;99.90
3406;DHT22;10008;48.682;9.016;2024-03-08T05:21:52;0.60;99.90
3406;DHT22;10008;48.682;9.016;2024-03-08T05:24:18;0.60;99.90
3406;DHT22;10008;48.682;9.016;2024-03-08T05:26:45;0.50;99.90
3406;DHT22;10008;48.682;9.016;2024-03-08T05:29:11;0.60;99.90
3406;DHT22;10008;48.682;9.016;2024-03-08T05:31:48;0.60;99.90
3406;DHT22;10008;48.682;9.016;2024-03-08T05:34:15;0.50;99.90
3406;DHT22;10008;48.682;9.016;2024-03-08T05:36:41;0.50;99.90
3406;DHT22;10008;48.682;9.016;2024-03-08T05:39:15;0.90;99.90
3406;DHT22;10008;48.682;9.016;2024-03-08T05:41:41;0.50;99.90
3406;DHT22;10008;48.682;9.016;2024-03-08T05:44:08;0.50;99.90
3406;DHT22;10008;48.682;9.016;2024-03-08T05:46:34;0.50;99.90
3406;DHT22;10008;48.682;9.016;2024-03-08T05:49:02;1.00;99.90
3406;DHT22;10008;48.682;9.016;2024-03-08T05:51:36;0.80;99.90
3406;DHT22;10008;48.682;9.016;2024-03-08T05:54:05;0.90;99.90
3406;DHT22;10008;48.682;9.016;2024-03-08T05:56:39;0.80;99.90
3406;DHT22;10008;48.682;9.016;2024-03-08T05:59:09;0.80;99.90
3406;DHT22;10008;48.682;9.016;2024-03-08T06:01:35;0.80;99.90
3406;DHT22;10008;48.682;9.016;2024-03-08T06:04:03;0.70;99.90
3406;DHT22;10008;48.682;9.016;2024-03-08T06:06:29;0.80;99.90
3406;DHT22;10008;48.682;9.016;2024-03-08T06:08:55;1.00;99.90
3406;DHT22;10008;48.682;9.016;2024-03-08T06:11:22;1.00;99.90
3406;DHT22;10008;48.682;9.016;2024-03-08T06:13:48;0.90;99.90
3406;DHT22;10008;48.682;9.016;2024-03-08T06:16:15;0.90;99.90
3406;DHT22;10008;48.682;9.016;2024-03-08T06:18:41;0.80;99.90
3406;DHT22;10008;48.682;9.016;2024-03-08T06:21:08;0.90;99.90
3406;DHT22;10008;48.682;9.016;2024-03-08T06:23:37;1.10;99.90
3406;DHT22;10008;48.682;9.016;2024-03-08T06:26:07;1.30;99.90
3406;DHT22;10008;48.682;9.016;2024-03-08T06:28:33;1.40;99.90
3406;DHT22;10008;48.682;9.016;2024-03-08T06:31:01;1.50;99.90
3406;DHT22;10008;48.682;9.016;2024-03-08T06:33:27;1.50;99.90
3406;DHT22;10008;48.682;9.016;2024-03-08T06:35:54;1.50;99.90
3406;DHT22;10008;48.682;9.016;2024-03-08T06:38:26;2.00;99.90
3406;DHT22;10008;48.682;9.016;2024-03-08T06:40:52;1.60;99.90
3406;DHT22;10008;48.682;9.016;2024-03-08T06:43:18;1.60;99.90
3406;DHT22;10008;48.682;9.016;2024-03-08T06:45:45;1.70;99.90
3406;DHT22;10008;48.682;9.016;2024-03-08T06:48:18;1.80;99.90
3406;DHT22;10008;48.682;9.016;2024-03-08T06:50:44;1.90;99.90
3406;DHT22;10008;48.682;9.016;2024-03-08T06:53:11;2.10;99.90
3406;DHT22;10008;48.682;9.016;2024-03-08T06:55:37;2.10;99.90
3406;DHT22;10008;48.682;9.016;2024-03-08T06:58:04;2.20;99.90
3406;DHT22;10008;48.682;9.016;2024-03-08T07:00:29;2.20;99.90
3406;DHT22;10008;48.682;9.016;2024-03-08T07:02:59;2.30;99.90
3406;DHT22;10008;48.682;9.016;2024-03-08T07:05:29;2.30;99.90
3406;DHT22;10008;48.682;9.016;2024-03-08T07:07:55;2.40;99.90
3406;DHT22;10008;48.682;9.016;2024-03-08T07:10:22;2.40;99.90
3406;DHT22;10008;48.682;9.016;2024-03-08T07:12:50;2.50;99.90
3406;DHT22;10008;48.682;9.016;2024-03-08T07:15:16;2.70;99.90
3406;DHT22;10008;48.682;9.016;2024-03-08T07:17:47;2.80;99.90
3406;DHT22;10008;48.682;9.016;2024-03-08T07:20:14;2.80;99.90
3406;DHT22;10008;48.682;9.016;2024-03-08T07:22:41;2.90;99.90
3406;DHT22;10008;48.682;9.016;2024-03-08T07:25:07;3.00;99.90
3406;DHT22;10008;48.682;9.016;2024-03-08T07:27:34;3.20;99.90
3406;DHT22;10008;48.682;9.016;2024-03-08T07:30:04;3.30;99.90
3406;DHT22;10008;48.682;9.016;2024-03-08T07:32:30;3.40;99.90
3406;DHT22;10008;48.682;9.016;2024-03-08T07:34:57;3.50;99.90
3406;DHT22;10008;48.682;9.016;2024-03-08T07:37:23;3.40;99.90
3406;DHT22;10008;48.682;9.016;2024-03-08T07:39:49;3.30;99.90
3406;DHT22;10008;48.682;9.016;2024-03-08T07:42:15;3.40;99.90
3406;DHT22;10008;48.682;9.016;2024-03-08T07:44:42;3.40;99.90
3406;DHT22;10008;48.682;9.016;2024-03-08T07:47:08;3.50;99.90
3406;DHT22;10008;48.682;9.016;2024-03-08T07:49:38;3.60;99.90
3406;DHT22;10008;48.682;9.016;2024-03-08T07:52:04;3.70;99.90
3406;DHT22;10008;48.682;9.016;2024-03-08T07:54:30;3.60;99.90
3406;DHT22;10008;48.682;9.016;2024-03-08T07:56:56;3.70;99.90
3406;DHT22;10008;48.682;9.016;2024-03-08T07:59:22;3.70;99.90
3406;DHT22;10008;48.682;9.016;2024-03-08T08:01:48;3.70;99.90
3406;DHT22;10008;48.682;9.016;2024-03-08T08:04:13;3.70;99.90
3406;DHT22;10008;48.682;9.016;2024-03-08T08:06:40;3.70;99.90
3406;DHT22;10008;48.682;9.016;2024-03-08T08:09:09;3.80;99.90
3406;DHT22;10008;48.682;9.016;2024-03-08T08:11:41;3.70;99.90
3406;DHT22;10008;48.682;9.016;2024-03-08T08:14:09;3.90;99.90
3406;DHT22;10008;48.682;9.016;2024-03-08T08:16:35;3.90;99.90
3406;DHT22;10008;48.682;9.016;2024-03-08T08:19:06;4.10;99.90
3406;DHT22;10008;48.682;9.016;2024-03-08T08:21:36;4.10;99.90
3406;DHT22;10008;48.682;9.016;2024-03-08T08:24:05;4.20;99.90
3406;DHT22;10008;48.682;9.016;2024-03-08T08:26:31;4.30;99.90
3406;DHT22;10008;48.682;9.016;2024-03-08T08:29:01;4.30;99.90
3406;DHT22;10008;48.682;9.016;2024-03-08T08:31:27;4.20;99.90
3406;DHT22;10008;48.682;9.016;2024-03-08T08:33:53;4.20;99.90
3406;DHT22;10008;48.682;9.016;2024-03-08T08:36:26;4.00;99.90
3406;DHT22;10008;48.682;9.016;2024-03-08T08:38:55;4.00;99.90
3406;DHT22;10008;48.682;9.016;2024-03-08T08:41:22;3.90;99.90
3406;DHT22;10008;48.682;9.016;2024-03-08T08:43:48;4.00;99.90
3406;DHT22;10008;48.682;9.016;2024-03-08T08:46:18;4.00;99.90
3406;DHT22;10008;48.682;9.016;2024-03-08T08:48:44;4.10;99.90
3406;DHT22;10008;48.682;9.016;2024-03-08T08:51:13;4.20;99.90
3406;DHT22;10008;48.682;9.016;2024-03-08T08:53:42;4.10;99.90
3406;DHT22;10008;48.682;9.016;2024-03-08T08:56:12;4.10;99.90
3406;DHT22;10008;48.682;9.016;2024-03-08T08:58:44;4.10;99.90
3406;DHT22;10008;48.682;9.016;2024-03-08T09:01:10;4.20;99.90
3406;DHT22;10008;48.682;9.016;2024-03-08T09:03:37;4.20;99.90
3406;DHT22;10008;48.682;9.016;2024-03-08T09:06:06;4.50;99.90
3406;DHT22;10008;48.682;9.016;2024-03-08T09:08:41;4.60;99.90
3406;DHT22;10008;48.682;9.016;2024-03-08T09:11:07;4.60;99.90
3406;DHT22;10008;48.682;9.016;2024-03-08T09:13:33;4.60;99.90
3406;DHT22;10008;48.682;9.016;2024-03-08T09:16:02;4.70;99.90
3406;DHT22;10008;48.682;9.016;2024-03-08T09:18:31;4.70;99.90
3406;DHT22;10008;48.682;9.016;2024-03-08T09:20:58;4.70;99.90
3406;DHT22;10008;48.682;9.016;2024-03-08T09:23:25;4.70;99.90
3406;DHT22;10008;48.682;9.016;2024-03-08T09:25:56;4.70;99.90
3406;DHT22;10008;48.682;9.016;2024-03-08T09:28:23;4.70;99.90
3406;DHT22;10008;48.682;9.016;2024-03-08T09:30:49;5.00;99.90
3406;DHT22;10008;48.682;9.016;2024-03-08T09:33:15;4.90;99.90
3406;DHT22;10008;48.682;9.016;2024-03-08T09:35:45;5.00;99.90
3406;DHT22;10008;48.682;9.016;2024-03-08T09:38:12;5.00;99.90
3406;DHT22;10008;48.682;9.016;2024-03-08T09:40:42;5.10;99.90
3406;DHT22;10008;48.682;9.016;2024-03-08T09:43:08;5.00;99.90
3406;DHT22;10008;48.682;9.016;2024-03-08T09:45:36;4.90;99.90
3406;DHT22;10008;48.682;9.016;2024-03-08T09:48:11;4.70;99.90
3406;DHT22;10008;48.682;9.016;2024-03-08T09:50:39;4.60;99.90
3406;DHT22;10008;48.682;9.016;2024-03-08T09:53:04;4.80;99.90
3406;DHT22;10008;48.682;9.016;2024-03-08T09:55:37;4.90;99.90
3406;DHT22;10008;48.682;9.016;2024-03-08T09:58:06;5.00;99.90
3406;DHT22;10008;48.682;9.016;2024-03-08T10:01:03;5.00;99.90
3406;DHT22;10008;48.682;9.016;2024-03-08T10:03:30;4.90;99.90
3406;DHT22;10008;48.682;9.016;2024-03-08T10:05:58;4.90;99.90
3406;DHT22;10008;48.682;9.016;2024-03-08T10:08:30;4.90;99.90
3406;DHT22;10008;48.682;9.016;2024-03-08T10:10:56;5.10;99.90
3406;DHT22;10008;48.682;9.016;2024-03-08T10:13:25;5.00;99.90
3406;DHT22;10008;48.682;9.016;2024-03-08T10:15:54;5.20;99.90
3406;DHT22;10008;48.682;9.016;2024-03-08T10:18:20;5.20;99.90
3406;DHT22;10008;48.682;9.016;2024-03-08T10:21:01;5.30;99.90
3406;DHT22;10008;48.682;9.016;2024-03-08T10:23:30;5.40;99.90
3406;DHT22;10008;48.682;9.016;2024-03-08T10:25:56;5.40;99.90
3406;DHT22;10008;48.682;9.016;2024-03-08T10:28:23;5.40;99.90
3406;DHT22;10008;48.682;9.016;2024-03-08T10:30:50;5.50;99.90
3406;DHT22;10008;48.682;9.016;2024-03-08T10:33:16;5.60;99.90
3406;DHT22;10008;48.682;9.016;2024-03-08T10:35:42;5.80;99.90
3406;DHT22;10008;48.682;9.016;2024-03-08T10:38:10;5.80;99.90
3406;DHT22;10008;48.682;9.016;2024-03-08T10:40:40;5.90;99.90
3406;DHT22;10008;48.682;9.016;2024-03-08T10:43:17;5.90;99.90
3406;DHT22;10008;48.682;9.016;2024-03-08T10:45:46;6.10;99.90
3406;DHT22;10008;48.682;9.016;2024-03-08T10:50:41;6.10;99.90
3406;DHT22;10008;48.682;9.016;2024-03-08T10:53:11;6.30;99.90
3406;DHT22;10008;48.682;9.016;2024-03-08T10:55:40;6.60;99.90
3406;DHT22;10008;48.682;9.016;2024-03-08T10:58:09;6.80;99.90
3406;DHT22;10008;48.682;9.016;2024-03-08T11:00:36;6.70;99.90
3406;DHT22;10008;48.682;9.016;2024-03-08T11:03:03;6.80;99.90
3406;DHT22;10008;48.682;9.016;2024-03-08T11:05:39;7.00;99.90
3406;DHT22;10008;48.682;9.016;2024-03-08T11:08:20;7.10;99.90
3406;DHT22;10008;48.682;9.016;2024-03-08T11:10:53;6.90;99.90
3406;DHT22;10008;48.682;9.016;2024-03-08T11:13:37;7.20;99.90
3406;DHT22;10008;48.682;9.016;2024-03-08T11:16:10;7.40;99.90
3406;DHT22;10008;48.682;9.016;2024-03-08T11:18:37;7.70;99.90
3406;DHT22;10008;48.682;9.016;2024-03-08T11:21:04;7.70;99.90
3406;DHT22;10008;48.682;9.016;2024-03-08T11:23:32;7.50;99.90
3406;DHT22;10008;48.682;9.016;2024-03-08T11:25:59;7.70;99.90
3406;DHT22;10008;48.682;9.016;2024-03-08T11:28:25;7.90;99.90
3406;DHT22;10008;48.682;9.016;2024-03-08T11:33:28;8.40;99.90
3406;DHT22;10008;48.682;9.016;2024-03-08T11:36:13;8.10;99.90
3406;DHT22;10008;48.682;9.016;2024-03-08T11:38:48;8.20;99.90
3406;DHT22;10008;48.682;9.016;2024-03-08T11:41:21;8.10;99.90
3406;DHT22;10008;48.682;9.016;2024-03-08T11:43:48;8.80;99.90
3406;DHT22;10008;48.682;9.016;2024-03-08T11:46:15;10.30;98.80
3406;DHT22;10008;48.682;9.016;2024-03-08T11:48:41;11.80;94.90
3406;DHT22;10008;48.682;9.016;2024-03-08T11:51:08;12.50;93.40
3406;DHT22;10008;48.682;9.016;2024-03-08T11:53:34;12.30;90.70
3406;DHT22;10008;48.682;9.016;2024-03-08T11:56:13;11.40;91.00
3406;DHT22;10008;48.682;9.016;2024-03-08T11:58:39;11.20;91.80
3406;DHT22;10008;48.682;9.016;2024-03-08T12:01:10;10.70;92.10
3406;DHT22;10008;48.682;9.016;2024-03-08T12:03:40;10.40;93.80
3406;DHT22;10008;48.682;9.016;2024-03-08T12:06:10;10.70;93.70
3406;DHT22;10008;48.682;9.016;2024-03-08T12:08:36;11.50;93.30
3406;DHT22;10008;48.682;9.016;2024-03-08T12:11:06;12.80;93.20
3406;DHT22;10008;48.682;9.016;2024-03-08T12:13:33;13.60;89.00
3406;DHT22;10008;48.682;9.016;2024-03-08T12:16:00;14.20;85.40
3406;DHT22;10008;48.682;9.016;2024-03-08T12:18:27;14.70;82.80
3406;DHT22;10008;48.682;9.016;2024-03-08T12:21:10;14.80;79.30
3406;DHT22;10008;48.682;9.016;2024-03-08T12:23:38;13.60;79.40
3406;DHT22;10008;48.682;9.016;2024-03-08T12:26:14;12.70;83.50
3406;DHT22;10008;48.682;9.016;2024-03-08T12:28:42;12.90;84.80
3406;DHT22;10008;48.682;9.016;2024-03-08T12:31:12;13.30;83.50
3406;DHT22;10008;48.682;9.016;2024-03-08T12:36:15;14.20;80.60
3406;DHT22;10008;48.682;9.016;2024-03-08T12:38:48;14.20;79.10
3406;DHT22;10008;48.682;9.016;2024-03-08T12:41:18;13.90;80.90
3406;DHT22;10008;48.682;9.016;2024-03-08T12:43:48;14.30;79.50
3406;DHT22;10008;48.682;9.016;2024-03-08T12:46:20;14.90;78.80
3406;DHT22;10008;48.682;9.016;2024-03-08T12:48:46;14.80;75.60
3406;DHT22;10008;48.682;9.016;2024-03-08T12:51:13;13.60;78.10
3406;DHT22;10008;48.682;9.016;2024-03-08T12:53:39;13.80;79.00
3406;DHT22;10008;48.682;9.016;2024-03-08T12:56:12;14.20;79.00
3406;DHT22;10008;48.682;9.016;2024-03-08T12:58:38;14.40;77.90
3406;DHT22;10008;48.682;9.016;2024-03-08T13:01:04;14.60;78.40
3406;DHT22;10008;48.682;9.016;2024-03-08T13:03:33;14.70;77.20
3406;DHT22;10008;48.682;9.016;2024-03-08T13:06:01;15.10;74.80
3406;DHT22;10008;48.682;9.016;2024-03-08T13:08:26;14.90;76.10
3406;DHT22;10008;48.682;9.016;2024-03-08T13:10:55;15.00;74.80
3406;DHT22;10008;48.682;9.016;2024-03-08T13:13:20;15.30;74.40
3406;DHT22;10008;48.682;9.016;2024-03-08T13:15:46;15.50;73.40
3406;DHT22;10008;48.682;9.016;2024-03-08T13:18:12;15.30;73.70
3406;DHT22;10008;48.682;9.016;2024-03-08T13:20:38;15.10;75.60
3406;DHT22;10008;48.682;9.016;2024-03-08T13:23:04;15.40;75.90
3406;DHT22;10008;48.682;9.016;2024-03-08T13:25:33;16.00;73.90
3406;DHT22;10008;48.682;9.016;2024-03-08T13:27:59;15.50;72.50
3406;DHT22;10008;48.682;9.016;2024-03-08T13:30:26;15.30;73.20
3406;DHT22;10008;48.682;9.016;2024-03-08T13:32:55;15.30;74.30
3406;DHT22;10008;48.682;9.016;2024-03-08T13:35:20;15.50;73.80
3406;DHT22;10008;48.682;9.016;2024-03-08T13:37:55;15.20;72.90
3406;DHT22;10008;48.682;9.016;2024-03-08T13:40:21;15.60;74.30
3406;DHT22;10008;48.682;9.016;2024-03-08T13:42:48;15.70;72.30
3406;DHT22;10008;48.682;9.016;2024-03-08T13:45:15;15.60;72.60
3406;DHT22;10008;48.682;9.016;2024-03-08T13:47:43;15.80;73.30
3406;DHT22;10008;48.682;9.016;2024-03-08T13:50:11;15.50;71.20
3406;DHT22;10008;48.682;9.016;2024-03-08T13:52:41;15.10;72.00
3406;DHT22;10008;48.682;9.016;2024-03-08T13:55:09;15.10;72.50
3406;DHT22;10008;48.682;9.016;2024-03-08T13:57:35;15.30;74.10
3406;DHT22;10008;48.682;9.016;2024-03-08T14:00:01;15.20;73.70
3406;DHT22;10008;48.682;9.016;2024-03-08T14:02:26;15.40;73.70
3406;DHT22;10008;48.682;9.016;2024-03-08T14:04:54;15.40;72.80
3406;DHT22;10008;48.682;9.016;2024-03-08T14:07:20;15.00;73.10
3406;DHT22;10008;48.682;9.016;2024-03-08T14:09:46;14.90;76.20
3406;DHT22;10008;48.682;9.016;2024-03-08T14:12:12;14.70;75.40
3406;DHT22;10008;48.682;9.016;2024-03-08T14:14:41;14.80;74.10
3406;DHT22;10008;48.682;9.016;2024-03-08T14:17:07;14.60;73.80
3406;DHT22;10008;48.682;9.016;2024-03-08T14:19:35;14.20;74.80
3406;DHT22;10008;48.682;9.016;2024-03-08T14:22:01;14.20;75.70
3406;DHT22;10008;48.682;9.016;2024-03-08T14:24:30;14.00;76.40
3406;DHT22;10008;48.682;9.016;2024-03-08T14:26:56;14.20;77.10
3406;DHT22;10008;48.682;9.016;2024-03-08T14:29:27;14.50;76.40
3406;DHT22;10008;48.682;9.016;2024-03-08T14:31:55;14.50;75.50
3406;DHT22;10008;48.682;9.016;2024-03-08T14:34:25;14.30;75.30
3406;DHT22;10008;48.682;9.016;2024-03-08T14:36:53;14.30;76.40
3406;DHT22;10008;48.682;9.016;2024-03-08T14:39:19;14.70;76.30
3406;DHT22;10008;48.682;9.016;2024-03-08T14:41:55;15.00;73.40
3406;DHT22;10008;48.682;9.016;2024-03-08T14:44:23;14.30;73.30
3406;DHT22;10008;48.682;9.016;2024-03-08T14:46:52;13.90;77.60
3406;DHT22;10008;48.682;9.016;2024-03-08T14:49:18;14.00;76.70
3406;DHT22;10008;48.682;9.016;2024-03-08T14:51:47;14.00;76.50
3406;DHT22;10008;48.682;9.016;2024-03-08T14:54:12;13.50;76.40
3406;DHT22;10008;48.682;9.016;2024-03-08T14:56:38;13.30;77.10
3406;DHT22;10008;48.682;9.016;2024-03-08T14:59:07;13.10;78.40
3406;DHT22;10008;48.682;9.016;2024-03-08T15:01:34;13.20;78.70
3406;DHT22;10008;48.682;9.016;2024-03-08T15:04:01;13.30;79.40
3406;DHT22;10008;48.682;9.016;2024-03-08T15:06:37;13.60;78.80
3406;DHT22;10008;48.682;9.016;2024-03-08T15:09:04;13.50;77.90
3406;DHT22;10008;48.682;9.016;2024-03-08T15:11:40;13.30;77.90
3406;DHT22;10008;48.682;9.016;2024-03-08T15:14:07;13.10;78.40
3406;DHT22;10008;48.682;9.016;2024-03-08T15:16:37;13.20;78.50
3406;DHT22;10008;48.682;9.016;2024-03-08T15:19:05;12.60;78.30
3406;DHT22;10008;48.682;9.016;2024-03-08T15:21:31;12.70;80.20
3406;DHT22;10008;48.682;9.016;2024-03-08T15:23:57;12.60;79.80
3406;DHT22;10008;48.682;9.016;2024-03-08T15:26:23;12.90;79.30
3406;DHT22;10008;48.682;9.016;2024-03-08T15:28:55;12.60;78.10
3406;DHT22;10008;48.682;9.016;2024-03-08T15:31:22;12.30;80.00
3406;DHT22;10008;48.682;9.016;2024-03-08T15:33:51;11.90;81.20
3406;DHT22;10008;48.682;9.016;2024-03-08T15:36:32;12.00;81.90
3406;DHT22;10008;48.682;9.016;2024-03-08T15:38:59;12.00;82.40
3406;DHT22;10008;48.682;9.016;2024-03-08T15:41:25;12.00;82.60
3406;DHT22;10008;48.682;9.016;2024-03-08T15:43:52;12.00;83.60
3406;DHT22;10008;48.682;9.016;2024-03-08T15:46:18;12.00;83.00
3406;DHT22;10008;48.682;9.016;2024-03-08T15:48:48;11.80;82.90
3406;DHT22;10008;48.682;9.016;2024-03-08T15:51:14;11.80;85.50
3406;DHT22;10008;48.682;9.016;2024-03-08T15:53:44;11.80;84.40
3406;DHT22;10008;48.682;9.016;2024-03-08T15:56:18;11.60;86.00
3406;DHT22;10008;48.682;9.016;2024-03-08T15:58:45;11.60;87.00
3406;DHT22;10008;48.682;9.016;2024-03-08T16:01:11;11.50;86.50
3406;DHT22;10008;48.682;9.016;2024-03-08T16:03:41;11.30;86.60
3406;DHT22;10008;48.682;9.016;2024-03-08T16:06:07;11.20;88.00
3406;DHT22;10008;48.682;9.016;2024-03-08T16:08:33;11.10;88.20